createdAt,value
2017-03-15T00:00:14.238Z,66.4
2017-03-15T00:01:16.097Z,66.4
2017-03-15T00:02:17.960Z,66.4
2017-03-15T00:03:20.162Z,66.5
2017-03-15T00:04:22.381Z,66.5
2017-03-15T00:05:24.234Z,66.4
2017-03-15T00:06:26.093Z,66.4
2017-03-15T00:07:27.968Z,66.5
2017-03-15T00:08:29.836Z,66.5
2017-03-15T00:09:32.041Z,66.5
2017-03-15T00:10:33.903Z,66.5
2017-03-15T00:11:35.788Z,66.5
2017-03-15T00:12:37.650Z,66.5
2017-03-15T00:13:40.192Z,66.6
2017-03-15T00:14:42.484Z,66.6
2017-03-15T00:15:44.345Z,66.6
2017-03-15T00:16:46.556Z,66.6
2017-03-15T00:17:48.756Z,66.5
2017-03-15T00:18:50.957Z,66.6
2017-03-15T00:19:53.153Z,66.6
2017-03-15T00:20:55.343Z,66.7
2017-03-15T00:21:57.200Z,66.7
2017-03-15T00:22:59.402Z,66.7
2017-03-15T00:24:01.603Z,66.7
2017-03-15T00:25:03.467Z,66.8
2017-03-15T00:26:05.327Z,66.7
2017-03-15T00:27:07.176Z,66.8
2017-03-15T00:28:09.034Z,66.9
2017-03-15T00:29:10.901Z,66.9
2017-03-15T00:30:13.094Z,66.9
2017-03-15T00:31:14.975Z,66.9
2017-03-15T00:32:17.180Z,66.9
2017-03-15T00:33:19.372Z,66.9
2017-03-15T00:34:21.264Z,66.9
2017-03-15T00:35:23.808Z,66.9
2017-03-15T00:36:25.659Z,66.8
2017-03-15T00:37:27.522Z,66.9
2017-03-15T00:38:29.378Z,66.9
2017-03-15T00:39:31.599Z,67
2017-03-15T00:40:34.814Z,67
2017-03-15T00:41:36.663Z,67
2017-03-15T00:42:38.519Z,67
2017-03-15T00:43:40.374Z,66.9
2017-03-15T00:44:42.247Z,67
2017-03-15T00:45:44.487Z,67
2017-03-15T00:46:47.401Z,66.9
2017-03-15T00:47:49.596Z,66.9
2017-03-15T00:48:51.810Z,66.9
2017-03-15T00:49:54.007Z,67
2017-03-15T00:50:56.562Z,67.1
2017-03-15T00:51:58.435Z,67.1
2017-03-15T00:53:00.297Z,67.1
2017-03-15T00:54:02.152Z,67
2017-03-15T00:55:04.027Z,66.9
2017-03-15T00:56:05.879Z,66.9
2017-03-15T00:57:07.736Z,66.9
2017-03-15T00:58:09.607Z,66.9
2017-03-15T00:59:11.811Z,67
2017-03-15T01:00:13.703Z,66.9
2017-03-15T01:01:15.574Z,67
2017-03-15T01:02:17.458Z,67.1
2017-03-15T01:03:19.337Z,67
2017-03-15T01:04:21.539Z,67.1
2017-03-15T01:05:23.405Z,67.1
2017-03-15T01:06:25.929Z,67.1
2017-03-15T01:07:27.807Z,67.1
2017-03-15T01:08:30.348Z,67.1
2017-03-15T01:09:32.196Z,67.1
2017-03-15T01:10:34.050Z,67.1
2017-03-15T01:11:36.244Z,67.2
2017-03-15T01:12:38.111Z,67.3
2017-03-15T01:13:40.672Z,67.3
2017-03-15T01:14:42.875Z,67.3
2017-03-15T01:15:44.740Z,67.2
2017-03-15T01:16:46.612Z,67.2
2017-03-15T01:17:48.469Z,67.1
2017-03-15T01:18:50.663Z,67.2
2017-03-15T01:19:53.232Z,67.2
2017-03-15T01:20:55.434Z,67.2
2017-03-15T01:21:58.328Z,67.3
2017-03-15T01:23:00.191Z,67.3
2017-03-15T01:24:02.034Z,67.2
2017-03-15T01:25:03.909Z,67.2
2017-03-15T01:26:05.775Z,67.1
2017-03-15T01:27:07.652Z,67.2
2017-03-15T01:28:09.857Z,67.2
2017-03-15T01:29:11.714Z,67.2
2017-03-15T01:30:13.925Z,67.2
2017-03-15T01:31:15.791Z,67.2
2017-03-15T01:32:17.671Z,67.2
2017-03-15T01:33:20.217Z,67.2
2017-03-15T01:34:22.751Z,67.1
2017-03-15T01:35:24.610Z,67.1
2017-03-15T01:36:27.162Z,67.1
2017-03-15T01:37:29.703Z,67.1
2017-03-15T01:38:31.568Z,67.1
2017-03-15T01:39:33.755Z,67.1
2017-03-15T01:40:35.615Z,67.2
2017-03-15T01:41:37.484Z,67
2017-03-15T01:42:40.027Z,67.1
2017-03-15T01:43:42.561Z,67.2
2017-03-15T01:44:44.760Z,67.2
2017-03-15T01:45:46.620Z,67.2
2017-03-15T01:46:48.479Z,67.3
2017-03-15T01:47:50.683Z,67.3
2017-03-15T01:48:53.247Z,67.3
2017-03-15T01:49:55.096Z,67.1
2017-03-15T01:50:57.317Z,67.3
2017-03-15T01:51:59.187Z,67.3
2017-03-15T01:53:01.387Z,67.4
2017-03-15T01:54:03.261Z,67.4
2017-03-15T01:55:05.129Z,67.3
2017-03-15T01:56:06.982Z,67.4
2017-03-15T01:57:08.848Z,67.4
2017-03-15T01:58:10.726Z,67.4
2017-03-15T01:59:12.573Z,67.4
2017-03-15T02:00:14.452Z,67.4
2017-03-15T02:01:16.300Z,67.4
2017-03-15T02:02:18.178Z,67.4
2017-03-15T02:03:20.036Z,67.4
2017-03-15T02:04:21.908Z,67.4
2017-03-15T02:05:24.451Z,67.4
2017-03-15T02:06:26.310Z,67.5
2017-03-15T02:07:28.847Z,67.3
2017-03-15T02:08:30.714Z,67.4
2017-03-15T02:09:33.576Z,67.3
2017-03-15T02:10:35.442Z,67.3
2017-03-15T02:11:37.305Z,67.4
2017-03-15T02:12:39.169Z,67.4
2017-03-15T02:13:41.703Z,67.4
2017-03-15T02:14:43.897Z,67.4
2017-03-15T02:15:46.119Z,67.4
2017-03-15T02:16:48.321Z,67.4
2017-03-15T02:17:50.189Z,67.5
2017-03-15T02:18:52.037Z,67.5
2017-03-15T02:19:53.918Z,67.3
2017-03-15T02:20:55.779Z,67.5
2017-03-15T02:21:57.656Z,67.4
2017-03-15T02:22:59.859Z,67.4
2017-03-15T02:24:01.713Z,67.4
2017-03-15T02:25:03.583Z,67.3
2017-03-15T02:26:05.806Z,67.3
2017-03-15T02:27:08.006Z,67.3
2017-03-15T02:28:09.862Z,67.4
2017-03-15T02:29:11.738Z,67.3
2017-03-15T02:30:14.282Z,67.3
2017-03-15T02:31:16.134Z,67.4
2017-03-15T02:32:17.996Z,67.5
2017-03-15T02:33:19.843Z,67.6
2017-03-15T02:34:21.717Z,67.6
2017-03-15T02:35:23.565Z,67.5
2017-03-15T02:36:25.425Z,67.5
2017-03-15T02:37:27.281Z,67.5
2017-03-15T02:38:29.157Z,67.6
2017-03-15T02:39:31.005Z,67.5
2017-03-15T02:40:32.861Z,67.5
2017-03-15T02:41:35.399Z,67.5
2017-03-15T02:42:37.254Z,67.5
2017-03-15T02:43:39.117Z,67.6
2017-03-15T02:44:40.975Z,67.6
2017-03-15T02:45:42.850Z,67.5
2017-03-15T02:46:45.070Z,67.5
2017-03-15T02:47:46.949Z,67.6
2017-03-15T02:48:49.151Z,67.6
2017-03-15T02:49:51.006Z,67.6
2017-03-15T02:50:52.886Z,67.7
2017-03-15T02:51:54.734Z,67.6
2017-03-15T02:52:56.607Z,67.6
2017-03-15T02:53:58.458Z,67.7
2017-03-15T02:55:00.322Z,67.7
2017-03-15T02:56:02.182Z,67.7
2017-03-15T02:57:04.029Z,67.8
2017-03-15T02:58:06.240Z,67.8
2017-03-15T02:59:08.114Z,67.8
2017-03-15T03:00:10.301Z,67.8
2017-03-15T03:01:12.175Z,67.9
2017-03-15T03:02:14.051Z,67.8
2017-03-15T03:03:15.902Z,67.9
2017-03-15T03:04:17.761Z,67.9
2017-03-15T03:05:19.605Z,67.9
2017-03-15T03:06:21.464Z,67.9
2017-03-15T03:07:23.674Z,67.9
2017-03-15T03:08:25.882Z,68
2017-03-15T03:09:27.757Z,68
2017-03-15T03:10:29.994Z,67.9
2017-03-15T03:11:32.204Z,67.8
2017-03-15T03:12:34.409Z,67.9
2017-03-15T03:13:36.266Z,67.9
2017-03-15T03:14:38.128Z,68
2017-03-15T03:15:39.993Z,67.9
2017-03-15T03:16:42.203Z,67.9
2017-03-15T03:17:44.757Z,67.8
2017-03-15T03:18:46.651Z,67.8
2017-03-15T03:19:48.531Z,67.8
2017-03-15T03:20:50.746Z,67.8
2017-03-15T03:21:53.299Z,67.7
2017-03-15T03:22:55.174Z,67.7
2017-03-15T03:23:57.376Z,67.7
2017-03-15T03:24:59.576Z,67.7
2017-03-15T03:26:01.767Z,67.7
2017-03-15T03:27:03.978Z,67.6
2017-03-15T03:28:05.853Z,67.7
2017-03-15T03:29:08.742Z,67.6
2017-03-15T03:30:10.963Z,67.6
2017-03-15T03:31:12.857Z,67.5
2017-03-15T03:32:15.075Z,67.5
2017-03-15T03:33:16.929Z,67.4
2017-03-15T03:34:19.128Z,67.5
2017-03-15T03:35:20.982Z,67.5
2017-03-15T03:36:23.182Z,67.5
2017-03-15T03:37:25.041Z,67.4
2017-03-15T03:38:27.245Z,67.5
2017-03-15T03:39:29.440Z,67.5
2017-03-15T03:40:31.969Z,67.6
2017-03-15T03:41:34.499Z,67.5
2017-03-15T03:42:36.351Z,67.5
2017-03-15T03:43:39.239Z,67.5
2017-03-15T03:44:41.768Z,67.5
2017-03-15T03:45:43.971Z,67.6
2017-03-15T03:46:46.158Z,67.6
2017-03-15T03:47:48.023Z,67.7
2017-03-15T03:48:50.222Z,67.6
2017-03-15T03:49:52.089Z,67.6
2017-03-15T03:50:53.959Z,67.6
2017-03-15T03:51:56.160Z,67.6
2017-03-15T03:52:58.035Z,67.6
2017-03-15T03:53:59.892Z,67.6
2017-03-15T03:55:16.784Z,67.6
2017-03-15T03:56:18.969Z,67.6
2017-03-15T03:57:20.828Z,67.6
2017-03-15T03:58:22.726Z,67.7
2017-03-15T03:59:24.597Z,67.6
2017-03-15T04:00:26.804Z,67.7
2017-03-15T04:01:28.997Z,67.6
2017-03-15T04:02:31.541Z,67.6
2017-03-15T04:03:33.418Z,67.6
2017-03-15T04:04:35.273Z,67.7
2017-03-15T04:05:37.133Z,67.7
2017-03-15T04:06:39.335Z,67.7
2017-03-15T04:07:41.546Z,67.7
2017-03-15T04:08:43.433Z,67.7
2017-03-15T04:09:45.649Z,67.7
2017-03-15T04:10:47.847Z,67.8
2017-03-15T04:11:50.054Z,67.8
2017-03-15T04:12:51.910Z,67.8
2017-03-15T04:13:54.103Z,67.8
2017-03-15T04:14:56.291Z,67.8
2017-03-15T04:15:58.149Z,67.8
2017-03-15T04:17:00.011Z,67.7
2017-03-15T04:18:01.861Z,67.8
2017-03-15T04:19:03.720Z,67.8
2017-03-15T04:20:05.921Z,67.7
2017-03-15T04:21:07.775Z,67.7
2017-03-15T04:22:09.629Z,67.8
2017-03-15T04:23:11.494Z,67.7
2017-03-15T04:24:13.343Z,67.8
2017-03-15T04:25:15.208Z,67.7
2017-03-15T04:26:17.753Z,67.8
2017-03-15T04:27:19.964Z,67.8
2017-03-15T04:28:21.826Z,67.8
2017-03-15T04:29:23.690Z,67.8
2017-03-15T04:30:25.896Z,67.8
2017-03-15T04:31:27.764Z,67.9
2017-03-15T04:32:30.994Z,67.9
2017-03-15T04:33:33.178Z,67.9
2017-03-15T04:34:35.728Z,67.8
2017-03-15T04:35:37.589Z,67.9
2017-03-15T04:36:39.951Z,67.8
2017-03-15T04:37:41.801Z,67.8
2017-03-15T04:38:43.655Z,67.8
2017-03-15T04:39:45.864Z,67.8
2017-03-15T04:40:48.086Z,67.8
2017-03-15T04:41:50.625Z,68
2017-03-15T04:42:52.528Z,68
2017-03-15T04:43:54.723Z,68
2017-03-15T04:44:56.590Z,68
2017-03-15T04:45:58.442Z,68
2017-03-15T04:47:00.653Z,68
2017-03-15T04:48:02.863Z,67.9
2017-03-15T04:49:05.398Z,68
2017-03-15T04:50:07.256Z,68
2017-03-15T04:51:09.123Z,67.9
2017-03-15T04:52:11.018Z,67.9
2017-03-15T04:53:12.870Z,67.9
2017-03-15T04:54:15.077Z,68
2017-03-15T04:55:16.940Z,68
2017-03-15T04:56:19.491Z,68
2017-03-15T04:57:21.356Z,68
2017-03-15T04:58:23.214Z,68
2017-03-15T04:59:25.059Z,68
2017-03-15T05:00:26.932Z,68.9
2017-03-15T05:01:28.824Z,69
2017-03-15T05:02:30.679Z,69.1
2017-03-15T05:03:32.885Z,69.1
2017-03-15T05:04:35.077Z,69.1
2017-03-15T05:05:36.933Z,69.1
2017-03-15T05:06:39.498Z,69.2
2017-03-15T05:07:41.699Z,69.2
2017-03-15T05:08:43.896Z,69.2
2017-03-15T05:09:46.097Z,69.2
2017-03-15T05:10:47.951Z,69.2
2017-03-15T05:11:50.157Z,69.2
2017-03-15T05:12:52.018Z,69.1
2017-03-15T05:13:54.211Z,69.1
2017-03-15T05:14:56.054Z,69.1
2017-03-15T05:15:58.252Z,69.1
2017-03-15T05:17:00.124Z,69.1
2017-03-15T05:18:01.980Z,69.2
2017-03-15T05:19:04.190Z,69.2
2017-03-15T05:20:06.042Z,69.2
2017-03-15T05:21:07.899Z,69.2
2017-03-15T05:22:10.096Z,69.3
2017-03-15T05:23:12.294Z,69.2
2017-03-15T05:24:14.153Z,69.1
2017-03-15T05:25:16.362Z,69.2
2017-03-15T05:26:18.232Z,69.1
2017-03-15T05:27:20.103Z,69.2
2017-03-15T05:28:22.301Z,69.2
2017-03-15T05:29:25.209Z,69.3
2017-03-15T05:30:27.074Z,69.4
2017-03-15T05:31:28.941Z,69.3
2017-03-15T05:32:31.168Z,69.3
2017-03-15T05:33:33.364Z,69.4
2017-03-15T05:34:35.561Z,69.4
2017-03-15T05:35:37.409Z,69.4
2017-03-15T05:36:39.268Z,69.3
2017-03-15T05:37:41.474Z,69.5
2017-03-15T05:38:44.371Z,69.4
2017-03-15T05:39:46.245Z,69.4
2017-03-15T05:40:48.798Z,69.4
2017-03-15T05:41:51.338Z,69.4
2017-03-15T05:42:53.521Z,69.4
2017-03-15T05:43:55.390Z,69.4
2017-03-15T05:44:57.251Z,69.4
2017-03-15T05:45:59.113Z,69.4
2017-03-15T05:47:01.315Z,69.4
2017-03-15T05:48:03.175Z,69.4
2017-03-15T05:49:05.706Z,69.4
2017-03-15T05:50:07.641Z,69.4
2017-03-15T05:51:09.492Z,69.4
2017-03-15T05:52:11.712Z,69.4
2017-03-15T05:53:13.920Z,69.5
2017-03-15T05:54:15.829Z,69.4
2017-03-15T05:55:17.678Z,69.4
2017-03-15T05:56:19.578Z,69.4
2017-03-15T05:57:21.875Z,69.4
2017-03-15T05:58:23.797Z,69.4
2017-03-15T05:59:26.004Z,69.4
2017-03-15T06:00:27.890Z,69.4
2017-03-15T06:01:29.846Z,69.5
2017-03-15T06:02:31.723Z,69.5
2017-03-15T06:03:33.912Z,69.5
2017-03-15T06:04:36.125Z,69.6
2017-03-15T06:05:38.696Z,69.5
2017-03-15T06:06:40.915Z,69.6
2017-03-15T06:07:42.850Z,69.6
2017-03-15T06:08:45.390Z,69.5
2017-03-15T06:09:47.250Z,69.6
2017-03-15T06:10:49.569Z,69.5
2017-03-15T06:11:51.533Z,69.6
2017-03-15T06:12:53.756Z,69.6
2017-03-15T06:13:56.341Z,69.7
2017-03-15T06:14:58.561Z,69.8
2017-03-15T06:16:00.413Z,69.7
2017-03-15T06:17:02.633Z,69.7
2017-03-15T06:18:04.486Z,69.8
2017-03-15T06:19:06.363Z,69.7
2017-03-15T06:20:08.943Z,69.7
2017-03-15T06:21:10.889Z,69.7
2017-03-15T06:22:13.165Z,69.7
2017-03-15T06:23:15.114Z,69.7
2017-03-15T06:24:16.977Z,69.6
2017-03-15T06:25:18.901Z,69.7
2017-03-15T06:26:21.109Z,69.7
2017-03-15T06:27:23.337Z,69.7
2017-03-15T06:28:25.645Z,69.7
2017-03-15T06:29:27.885Z,69.8
2017-03-15T06:30:30.154Z,69.7
2017-03-15T06:31:32.089Z,69.8
2017-03-15T06:32:34.031Z,69.9
2017-03-15T06:33:36.574Z,69.9
2017-03-15T06:34:38.452Z,69.7
2017-03-15T06:35:40.663Z,69.7
2017-03-15T06:36:43.262Z,69.6
2017-03-15T06:37:45.799Z,69.6
2017-03-15T06:38:48.697Z,69.6
2017-03-15T06:39:50.932Z,69.6
2017-03-15T06:40:53.874Z,69.6
2017-03-15T06:41:56.445Z,69.7
2017-03-15T06:42:58.318Z,69.7
2017-03-15T06:44:00.193Z,69.7
2017-03-15T06:45:02.387Z,69.7
2017-03-15T06:46:04.283Z,69.7
2017-03-15T06:47:06.506Z,69.7
2017-03-15T06:48:08.377Z,68.8
2017-03-15T06:49:10.618Z,68.8
2017-03-15T06:50:12.512Z,68.9
2017-03-15T06:51:14.386Z,68.8
2017-03-15T06:52:16.316Z,68.8
2017-03-15T06:53:18.584Z,68.8
2017-03-15T06:54:20.450Z,68.7
2017-03-15T06:55:22.307Z,68.7
2017-03-15T06:56:24.522Z,68.8
2017-03-15T06:57:27.079Z,68.8
2017-03-15T06:58:29.681Z,68.7
2017-03-15T06:59:31.579Z,68.7
2017-03-15T07:00:33.444Z,68.5
2017-03-15T07:01:35.799Z,68.5
2017-03-15T07:02:38.046Z,68.6
2017-03-15T07:03:40.015Z,68.7
2017-03-15T07:04:41.890Z,68.7
2017-03-15T07:05:44.114Z,68.6
2017-03-15T07:06:46.649Z,68.7
2017-03-15T07:07:48.851Z,68.8
2017-03-15T07:08:50.707Z,68.7
2017-03-15T07:09:52.596Z,68.6
2017-03-15T07:10:54.854Z,68.6
2017-03-15T07:11:57.052Z,68.7
2017-03-15T07:12:59.486Z,68.6
2017-03-15T07:14:01.356Z,68.7
2017-03-15T07:15:03.222Z,68.7
2017-03-15T07:16:05.800Z,68.5
2017-03-15T07:17:07.676Z,68.5
2017-03-15T07:18:09.903Z,68.5
2017-03-15T07:19:12.438Z,68.4
2017-03-15T07:20:15.333Z,68.4
2017-03-15T07:21:17.359Z,68.6
2017-03-15T07:22:19.241Z,68.7
2017-03-15T07:23:21.671Z,68.6
2017-03-15T07:24:23.544Z,68.6
2017-03-15T07:25:25.747Z,68.5
2017-03-15T07:26:27.840Z,68.5
2017-03-15T07:27:29.714Z,68.6
2017-03-15T07:28:31.570Z,68.5
2017-03-15T07:29:33.721Z,68.6
2017-03-15T07:30:35.607Z,68.5
2017-03-15T07:31:37.474Z,68.4
2017-03-15T07:32:39.345Z,68.3
2017-03-15T07:33:41.403Z,68.3
2017-03-15T07:34:43.304Z,68.4
2017-03-15T07:35:45.184Z,68.4
2017-03-15T07:36:47.586Z,68.5
2017-03-15T07:37:49.782Z,68.4
2017-03-15T07:38:51.922Z,68.3
2017-03-15T07:39:53.777Z,68.4
2017-03-15T07:40:55.997Z,68.4
2017-03-15T07:41:58.476Z,68.5
2017-03-15T07:43:00.367Z,68.4
2017-03-15T07:44:02.236Z,68.4
2017-03-15T07:45:04.160Z,68.3
2017-03-15T07:46:06.373Z,68.3
2017-03-15T07:47:08.225Z,68.1
2017-03-15T07:48:10.354Z,68.1
2017-03-15T07:49:12.557Z,68.2
2017-03-15T07:50:14.768Z,68.1
2017-03-15T07:51:16.634Z,68.2
2017-03-15T07:52:18.839Z,68.1
2017-03-15T07:53:21.971Z,68.1
2017-03-15T07:54:23.856Z,68
2017-03-15T07:55:25.746Z,67.9
2017-03-15T07:56:28.230Z,67.8
2017-03-15T07:57:30.494Z,67.7
2017-03-15T07:58:32.356Z,67.6
2017-03-15T07:59:34.505Z,67.8
2017-03-15T08:00:36.702Z,67.9
2017-03-15T08:01:38.588Z,67.7
2017-03-15T08:02:40.589Z,67.7
2017-03-15T08:03:42.809Z,68
2017-03-15T08:04:45.014Z,67.9
2017-03-15T08:05:46.879Z,68.1
2017-03-15T08:06:48.738Z,68.2
2017-03-15T08:07:50.613Z,68.2
2017-03-15T08:08:52.643Z,68.2
2017-03-15T08:09:54.516Z,68.2
2017-03-15T08:10:56.389Z,68.1
2017-03-15T08:11:58.954Z,68
2017-03-15T08:13:01.182Z,68.1
2017-03-15T08:14:03.028Z,68.2
2017-03-15T08:15:04.906Z,68.3
2017-03-15T08:16:06.766Z,68.3
2017-03-15T08:17:08.654Z,68.2
2017-03-15T08:18:10.677Z,68.4
2017-03-15T08:19:12.883Z,68.5
2017-03-15T08:20:14.749Z,68.8
2017-03-15T08:21:17.046Z,69.3
2017-03-15T08:22:19.271Z,69.4
2017-03-15T08:23:21.145Z,69.6
2017-03-15T08:24:23.008Z,69.6
2017-03-15T08:25:25.585Z,69.9
2017-03-15T08:26:27.804Z,70.1
2017-03-15T08:27:29.960Z,70.2
2017-03-15T08:28:31.826Z,70.7
2017-03-15T08:29:33.709Z,71.1
2017-03-15T08:30:35.756Z,71.2
2017-03-15T08:31:37.619Z,70.6
2017-03-15T08:32:39.503Z,70.7
2017-03-15T08:33:41.392Z,70.7
2017-03-15T08:34:43.266Z,70.6
2017-03-15T08:35:45.239Z,70.6
2017-03-15T08:36:47.450Z,70.7
2017-03-15T08:37:49.323Z,70.9
2017-03-15T08:38:51.191Z,71
2017-03-15T08:39:53.075Z,70.6
2017-03-15T08:40:54.937Z,70.3
2017-03-15T08:41:56.830Z,69.7
2017-03-15T08:42:58.688Z,69.4
2017-03-15T08:44:00.559Z,68.8
2017-03-15T08:45:02.422Z,68.5
2017-03-15T08:46:04.630Z,68.8
2017-03-15T08:47:06.504Z,69
2017-03-15T08:48:08.719Z,69.1
2017-03-15T08:49:10.588Z,69.2
2017-03-15T08:50:12.449Z,69.4
2017-03-15T08:51:14.310Z,69.3
2017-03-15T08:52:16.167Z,69.3
2017-03-15T08:53:18.386Z,69.3
2017-03-15T08:54:20.271Z,69.1
2017-03-15T08:55:22.140Z,68.4
2017-03-15T08:56:24.013Z,68.1
2017-03-15T08:57:25.884Z,67.7
2017-03-15T08:58:27.781Z,67.7
2017-03-15T08:59:29.638Z,67.8
2017-03-15T09:00:31.503Z,68
2017-03-15T09:01:33.701Z,68.2
2017-03-15T09:02:35.569Z,68.4
2017-03-15T09:03:37.442Z,68.5
2017-03-15T09:04:39.311Z,68.7
2017-03-15T09:05:41.505Z,68.3
2017-03-15T09:06:43.382Z,68.2
2017-03-15T09:07:45.241Z,68.2
2017-03-15T09:08:47.095Z,67.8
2017-03-15T09:09:48.955Z,67.5
2017-03-15T09:10:50.817Z,67.2
2017-03-15T09:11:52.689Z,67.4
2017-03-15T09:12:54.592Z,67
2017-03-15T09:13:56.814Z,66.6
2017-03-15T09:14:59.359Z,66.4
2017-03-15T09:16:01.220Z,66.1
2017-03-15T09:17:03.110Z,66
2017-03-15T09:18:04.959Z,65.8
2017-03-15T09:19:07.176Z,66
2017-03-15T09:20:09.392Z,66.3
2017-03-15T09:21:11.271Z,66
2017-03-15T09:22:13.158Z,65.8
2017-03-15T09:23:15.362Z,66.1
2017-03-15T09:24:17.570Z,66.1
2017-03-15T09:25:19.456Z,66.2
2017-03-15T09:26:21.670Z,66.5
2017-03-15T09:27:23.887Z,66.6
2017-03-15T09:28:25.750Z,66.7
2017-03-15T09:29:27.626Z,66.7
2017-03-15T09:30:29.848Z,66.7
2017-03-15T09:31:32.048Z,66.6
2017-03-15T09:32:33.931Z,66.2
2017-03-15T09:33:35.813Z,65.5
2017-03-15T09:34:38.025Z,65.4
2017-03-15T09:35:39.903Z,65.1
2017-03-15T09:36:41.769Z,64.9
2017-03-15T09:37:43.647Z,64.9
2017-03-15T09:38:45.514Z,64.3
2017-03-15T09:39:47.398Z,64.3
2017-03-15T09:40:49.625Z,64.3
2017-03-15T09:41:51.830Z,64.5
2017-03-15T09:42:53.693Z,64.9
2017-03-15T09:43:55.908Z,64.9
2017-03-15T09:44:57.773Z,64.9
2017-03-15T09:45:59.644Z,64.7
2017-03-15T09:47:01.507Z,64.7
2017-03-15T09:48:03.749Z,64.3
2017-03-15T09:49:05.622Z,63.6
2017-03-15T09:50:07.486Z,63.8
2017-03-15T09:51:09.355Z,64
2017-03-15T09:52:11.221Z,64.1
2017-03-15T09:53:13.136Z,64.1
2017-03-15T09:54:14.996Z,64.2
2017-03-15T09:55:16.884Z,64.4
2017-03-15T09:56:18.744Z,64.3
2017-03-15T09:57:20.623Z,64.1
2017-03-15T09:58:22.491Z,63.5
2017-03-15T09:59:24.698Z,63.6
2017-03-15T10:00:26.587Z,63.7
2017-03-15T10:01:28.451Z,63.3
2017-03-15T10:02:30.324Z,62.9
2017-03-15T10:03:32.542Z,62.6
2017-03-15T10:04:34.404Z,62.2
2017-03-15T10:05:36.302Z,61.9
2017-03-15T10:06:38.165Z,61.8
2017-03-15T10:07:40.029Z,62
2017-03-15T10:08:41.893Z,62.2
2017-03-15T10:09:44.113Z,62
2017-03-15T10:10:45.997Z,61.9
2017-03-15T10:11:47.864Z,61.7
2017-03-15T10:12:50.083Z,62.2
2017-03-15T10:13:51.972Z,62.8
2017-03-15T10:14:54.176Z,62.7
2017-03-15T10:15:56.051Z,62.7
2017-03-15T10:16:57.907Z,62.5
2017-03-15T10:17:59.771Z,62.3
2017-03-15T10:19:01.638Z,62.6
2017-03-15T10:20:03.506Z,61.8
2017-03-15T10:21:05.380Z,61.6
2017-03-15T10:22:07.249Z,61.7
2017-03-15T10:23:09.141Z,61.7
2017-03-15T10:24:11.007Z,61.7
2017-03-15T10:25:12.887Z,61.5
2017-03-15T10:26:14.750Z,61.1
2017-03-15T10:27:16.622Z,60.5
2017-03-15T10:28:18.487Z,60.5
2017-03-15T10:29:20.345Z,60.3
2017-03-15T10:30:22.214Z,60.5
2017-03-15T10:31:24.081Z,60.8
2017-03-15T10:32:25.939Z,60.6
2017-03-15T10:33:27.799Z,60.8
2017-03-15T10:34:29.682Z,60.9
2017-03-15T10:35:31.541Z,60.9
2017-03-15T10:36:33.416Z,60.3
2017-03-15T10:37:35.280Z,60.4
2017-03-15T10:38:37.161Z,60.5
2017-03-15T10:39:39.037Z,60.7
2017-03-15T10:40:40.906Z,60.3
2017-03-15T10:41:42.768Z,59.6
2017-03-15T10:42:44.973Z,59.2
2017-03-15T10:43:46.841Z,58.9
2017-03-15T10:44:49.062Z,58.7
2017-03-15T10:45:50.930Z,58.6
2017-03-15T10:46:53.144Z,58.4
2017-03-15T10:47:55.005Z,58.8
2017-03-15T10:48:56.874Z,59.2
2017-03-15T10:49:58.753Z,59.5
2017-03-15T10:51:00.614Z,59.5
2017-03-15T10:52:02.472Z,59.3
2017-03-15T10:53:04.710Z,59
2017-03-15T10:54:06.567Z,58.7
2017-03-15T10:55:08.430Z,58.5
2017-03-15T10:56:10.288Z,58.4
2017-03-15T10:57:12.508Z,58.4
2017-03-15T10:58:14.407Z,58.8
2017-03-15T10:59:16.278Z,59
2017-03-15T11:00:18.141Z,59
2017-03-15T11:01:20.007Z,58.9
2017-03-15T11:02:21.880Z,59.1
2017-03-15T11:03:23.745Z,59.2
2017-03-15T11:04:25.605Z,59.2
2017-03-15T11:05:27.804Z,58.8
2017-03-15T11:06:29.671Z,58.5
2017-03-15T11:07:31.558Z,58.2
2017-03-15T11:08:33.440Z,57.9
2017-03-15T11:09:35.322Z,57.7
2017-03-15T11:10:37.179Z,57.6
2017-03-15T11:11:39.045Z,57.6
2017-03-15T11:12:40.916Z,57
2017-03-15T11:13:42.784Z,56.8
2017-03-15T11:14:44.649Z,57
2017-03-15T11:15:46.534Z,57.1
2017-03-15T11:16:48.762Z,57
2017-03-15T11:17:50.651Z,57.3
2017-03-15T11:18:52.518Z,57.2
2017-03-15T11:19:54.388Z,57.4
2017-03-15T11:20:56.251Z,57.1
2017-03-15T11:21:58.134Z,56.8
2017-03-15T11:22:59.996Z,56.5
2017-03-15T11:24:01.856Z,56.2
2017-03-15T11:25:03.715Z,56.3
2017-03-15T11:26:05.594Z,56.4
2017-03-15T11:27:07.792Z,56.5
2017-03-15T11:28:09.657Z,56.3
2017-03-15T11:29:11.530Z,56.4
2017-03-15T11:30:13.393Z,56.4
2017-03-15T11:31:15.594Z,56.4
2017-03-15T11:32:17.794Z,56.6
2017-03-15T11:33:19.663Z,56.7
2017-03-15T11:34:22.207Z,56.5
2017-03-15T11:35:24.080Z,56.2
2017-03-15T11:36:25.947Z,56.3
2017-03-15T11:37:27.810Z,56.4
2017-03-15T11:38:29.691Z,56.3
2017-03-15T11:39:31.563Z,56.1
2017-03-15T11:40:33.730Z,55.7
2017-03-15T11:41:35.596Z,55.5
2017-03-15T11:42:37.481Z,55.2
2017-03-15T11:43:39.351Z,55.4
2017-03-15T11:44:41.209Z,55.4
2017-03-15T11:45:43.078Z,55.7
2017-03-15T11:46:44.929Z,55.2
2017-03-15T11:47:46.794Z,55
2017-03-15T11:48:48.678Z,55.3
2017-03-15T11:49:50.538Z,55.3
2017-03-15T11:50:52.406Z,54.9
2017-03-15T11:51:54.263Z,54.7
2017-03-15T11:52:56.129Z,54.8
2017-03-15T11:53:57.993Z,55
2017-03-15T11:54:59.858Z,54.9
2017-03-15T11:56:01.726Z,54.8
2017-03-15T11:57:03.579Z,54.9
2017-03-15T11:58:05.442Z,55.2
2017-03-15T11:59:07.307Z,55.2
2017-03-15T12:00:09.172Z,54.8
2017-03-15T12:01:11.031Z,54.4
2017-03-15T12:02:12.895Z,54.4
2017-03-15T12:03:14.757Z,54.3
2017-03-15T12:04:16.625Z,53.7
2017-03-15T12:05:18.829Z,53.6
2017-03-15T12:06:20.699Z,53.8
2017-03-15T12:07:22.563Z,54.3
2017-03-15T12:08:24.772Z,54.4
2017-03-15T12:09:26.965Z,54.2
2017-03-15T12:10:28.826Z,53.8
2017-03-15T12:11:30.691Z,53.6
2017-03-15T12:12:32.558Z,53.2
2017-03-15T12:13:34.416Z,53.3
2017-03-15T12:14:36.283Z,53.5
2017-03-15T12:15:38.483Z,53.8
2017-03-15T12:16:40.687Z,53.9
2017-03-15T12:17:42.554Z,53.7
2017-03-15T12:18:44.424Z,53.6
2017-03-15T12:19:46.279Z,53.2
2017-03-15T12:20:48.150Z,52.6
2017-03-15T12:21:50.013Z,52.5
2017-03-15T12:22:51.876Z,52.4
2017-03-15T12:23:54.069Z,52.3
2017-03-15T12:24:56.284Z,52.2
2017-03-15T12:25:58.136Z,52.7
2017-03-15T12:27:00.011Z,52.4
2017-03-15T12:28:02.221Z,52.1
2017-03-15T12:29:04.093Z,52.5
2017-03-15T12:30:05.958Z,52.4
2017-03-15T12:31:07.831Z,52.1
2017-03-15T12:32:09.699Z,52
2017-03-15T12:33:11.554Z,52.1
2017-03-15T12:34:13.426Z,52
2017-03-15T12:35:15.295Z,52
2017-03-15T12:36:17.160Z,52.4
2017-03-15T12:37:19.055Z,52
2017-03-15T12:38:20.922Z,52.1
2017-03-15T12:39:22.797Z,52.6
2017-03-15T12:40:24.659Z,52.7
2017-03-15T12:41:26.533Z,52.3
2017-03-15T12:42:28.394Z,52.3
2017-03-15T12:43:30.260Z,52.3
2017-03-15T12:44:32.129Z,52.3
2017-03-15T12:45:33.995Z,52.2
2017-03-15T12:46:35.853Z,52.2
2017-03-15T12:47:37.717Z,52.1
2017-03-15T12:48:39.597Z,52.1
2017-03-15T12:49:41.489Z,52
2017-03-15T12:50:43.362Z,52
2017-03-15T12:51:45.242Z,51.9
2017-03-15T12:52:47.111Z,51.9
2017-03-15T12:53:48.988Z,51.8
2017-03-15T12:54:51.187Z,51.8
2017-03-15T12:55:53.076Z,51.7
2017-03-15T12:56:54.941Z,51.6
2017-03-15T12:57:57.161Z,51.6
2017-03-15T12:58:59.030Z,51.5
2017-03-15T13:00:01.228Z,51.5
2017-03-15T13:01:03.083Z,51.5
2017-03-15T13:02:04.959Z,51.5
2017-03-15T13:03:06.824Z,51.5
2017-03-15T13:04:08.690Z,51.5
2017-03-15T13:05:10.547Z,51.5
2017-03-15T13:06:12.421Z,51.5
2017-03-15T13:07:14.292Z,51.4
2017-03-15T13:08:16.174Z,51.5
2017-03-15T13:09:18.371Z,51.5
2017-03-15T13:10:20.249Z,51.5
2017-03-15T13:11:22.125Z,51.6
2017-03-15T13:12:24.000Z,51.6
2017-03-15T13:13:25.906Z,51.6
2017-03-15T13:14:27.768Z,51.6
2017-03-15T13:15:29.632Z,51.6
2017-03-15T13:16:31.502Z,51.7
2017-03-15T13:17:33.374Z,51.7
2017-03-15T13:18:35.245Z,51.6
2017-03-15T13:19:37.108Z,51.5
2017-03-15T13:20:39.322Z,51.5
2017-03-15T13:21:41.186Z,51.5
2017-03-15T13:22:43.048Z,51.5
2017-03-15T13:23:44.917Z,51.3
2017-03-15T13:24:46.776Z,51.2
2017-03-15T13:25:48.643Z,51.2
2017-03-15T13:26:50.518Z,51.1
2017-03-15T13:27:52.387Z,51.1
2017-03-15T13:28:54.248Z,51.2
2017-03-15T13:29:56.114Z,51.2
2017-03-15T13:30:58.016Z,51.2
2017-03-15T13:31:59.888Z,51.2
2017-03-15T13:33:01.752Z,51.2
2017-03-15T13:34:03.623Z,51.2
2017-03-15T13:35:05.487Z,51.2
2017-03-15T13:36:07.354Z,51.2
2017-03-15T13:37:09.223Z,51.2
2017-03-15T13:38:11.090Z,51.2
2017-03-15T13:39:12.962Z,51.3
2017-03-15T13:40:14.833Z,51.4
2017-03-15T13:41:16.702Z,51.4
2017-03-15T13:42:18.560Z,51.4
2017-03-15T13:43:20.427Z,51.3
2017-03-15T13:44:22.296Z,51.3
2017-03-15T13:45:24.179Z,51.3
2017-03-15T13:46:26.054Z,51.3
2017-03-15T13:47:27.942Z,51.2
2017-03-15T13:48:30.151Z,51.2
2017-03-15T13:49:32.017Z,51.2